Main page
METAR-TAF:

METAR-TAF

Airports :

Edinburgh, Scotland

Edinburgh Airport

latitude: 55-57N, longitude: 003-21W, elevation: 41 m

Current weather observation

The report was made 34 minutes ago, at 08:20 UTC
Wind 16 kt from the West
Temperature 14°C
Humidity 63%
Pressure 1006 hPa
Visibility 10 km or more
Few clouds at a height of 2700 ft
Scattered clouds at a height of 4800 ft

METAR: EGPH 250820Z 26016KT 9999 FEW027 SCT048 14/07 Q1006

Time: 09:54 (08:54 UTC)

Forecast

The report was made 3 hours and 57 minutes ago, at 04:57 UTC
Forecast valid from 25 at 06 UTC to 26 at 06 UTC
Wind 12 kt from the West/Southwest
Visibility 10 km or more
Few clouds at a height of 3500 ft
Probability 30% :
Temporary
from 25 at 10 UTC to 25 at 18 UTC
Wind 15 kt from the West with gusts up to 25 kt
Visibility: 7000 m
rain showers

TAF: EGPH 250457Z 2506/2606 25012KT 9999 FEW035 PROB30 TEMPO 2510/2518 26015G25KT 7000 SHRA

Weather observations and forecasts of more than 4000 airports (METAR and TAF reports).

The available stations are represented by yellow and red dots on the map.

Hover mouse over dot to see the name of the station.

Then click to see weather observations and forecasts.

To change the map : click on the green buttons with a black cross to zoom in, on the green button with a dash to zoom out, or on the green arrows for adjacent maps.


METAR-TAF: